首页
METAR-TAF:

METAR-TAF

机场 :

New Bern, 北卡罗来纳州, 美国

纬度: 35-04-03N, 经度: 077-02-50W, 海拔: 5米

当前天气观测

该预报发布于39分钟前的18:54 UTC
风速6节,风向多变,有时为18节阵风
温度 30°C
湿度 52%
气压 1023 hPa
能見度: 16.1公里
少量云层高于4400英尺
散云层高于11000英尺

METAR: KEWN 231854Z VRB06G18KT 10SM FEW044 SCT110 30/19 A3020 RMK AO2 SLP225 T03000194

时间: 15:33 (19:33 UTC)

预报

该预报发布于2小时和1分钟前的17:32 UTC
预报有效从23日的 18点(UTC)到 24日的 18点(UTC)
风速5节,风向西南
能見度: 10公里
多云层高于6000英尺
从 23日的 2100点(UTC)
风速8节,风向南转西南
能見度: 10公里
散云层高于25000英尺
从 24日的 1400点(UTC)
风速9节,风向西转西北
能見度: 10公里
少量云层高于25000英尺

TAF: KEWN 231732Z 2318/2418 23005KT P6SM BKN060 FM232100 20008KT P6SM SCT250 FM241400 29009KT P6SM FEW250

超过4000个机场的气象观测和天气预报(METAR&TAF报告)。

可查询的气象台以黄色和红色小点在地图上表示。

将鼠标移到小点上方,可查看气象台名称。

然后点击查看天气观测和预报。

如需切换地图:点击带黑十字的绿色按钮放大地图;点击带横线的绿色按钮缩小地图;或者点击绿色箭头查看邻近地区的地图。


METAR-TAF: